sensor_id;sensor_type;location;lat;lon;timestamp;temperature;humidity
5899;DHT22;2975;50.956;6.962;2022-07-23T00:01:17;18.80;99.90
5899;DHT22;2975;50.956;6.962;2022-07-23T00:03:43;18.70;99.90
5899;DHT22;2975;50.956;6.962;2022-07-23T00:06:09;18.70;99.90
5899;DHT22;2975;50.956;6.962;2022-07-23T00:08:34;18.70;99.90
5899;DHT22;2975;50.956;6.962;2022-07-23T00:11:00;18.60;99.90
5899;DHT22;2975;50.956;6.962;2022-07-23T00:13:26;18.60;99.90
5899;DHT22;2975;50.956;6.962;2022-07-23T00:15:52;18.60;99.90
5899;DHT22;2975;50.956;6.962;2022-07-23T00:18:18;18.50;99.90
5899;DHT22;2975;50.956;6.962;2022-07-23T00:20:43;18.50;99.90
5899;DHT22;2975;50.956;6.962;2022-07-23T00:23:09;18.40;99.90
5899;DHT22;2975;50.956;6.962;2022-07-23T00:25:35;18.40;99.90
5899;DHT22;2975;50.956;6.962;2022-07-23T00:28:01;18.30;99.90
5899;DHT22;2975;50.956;6.962;2022-07-23T00:30:28;18.10;99.90
5899;DHT22;2975;50.956;6.962;2022-07-23T00:32:59;18.00;99.90
5899;DHT22;2975;50.956;6.962;2022-07-23T00:35:27;17.80;99.90
5899;DHT22;2975;50.956;6.962;2022-07-23T00:37:53;17.60;99.90
5899;DHT22;2975;50.956;6.962;2022-07-23T00:40:19;17.40;99.90
5899;DHT22;2975;50.956;6.962;2022-07-23T00:42:45;17.30;99.90
5899;DHT22;2975;50.956;6.962;2022-07-23T00:45:10;17.20;99.90
5899;DHT22;2975;50.956;6.962;2022-07-23T00:47:36;17.20;99.90
5899;DHT22;2975;50.956;6.962;2022-07-23T00:50:04;17.20;99.90
5899;DHT22;2975;50.956;6.962;2022-07-23T00:52:31;17.20;99.90
5899;DHT22;2975;50.956;6.962;2022-07-23T00:54:57;17.30;99.90
5899;DHT22;2975;50.956;6.962;2022-07-23T00:57:23;17.40;99.90
5899;DHT22;2975;50.956;6.962;2022-07-23T00:59:49;17.40;99.90
5899;DHT22;2975;50.956;6.962;2022-07-23T01:02:14;17.40;99.90
5899;DHT22;2975;50.956;6.962;2022-07-23T01:04:40;17.40;99.90
5899;DHT22;2975;50.956;6.962;2022-07-23T01:07:06;17.40;99.90
5899;DHT22;2975;50.956;6.962;2022-07-23T01:09:32;17.50;99.90
5899;DHT22;2975;50.956;6.962;2022-07-23T01:11:59;17.50;99.90
5899;DHT22;2975;50.956;6.962;2022-07-23T01:14:24;17.50;99.90
5899;DHT22;2975;50.956;6.962;2022-07-23T01:16:50;17.50;99.90
5899;DHT22;2975;50.956;6.962;2022-07-23T01:19:17;17.70;99.90
5899;DHT22;2975;50.956;6.962;2022-07-23T01:21:45;17.80;99.90
5899;DHT22;2975;50.956;6.962;2022-07-23T01:24:12;17.70;99.90
5899;DHT22;2975;50.956;6.962;2022-07-23T01:26:39;17.60;99.90
5899;DHT22;2975;50.956;6.962;2022-07-23T01:29:05;17.50;99.90
5899;DHT22;2975;50.956;6.962;2022-07-23T01:31:31;17.40;99.90
5899;DHT22;2975;50.956;6.962;2022-07-23T01:33:57;17.30;99.90
5899;DHT22;2975;50.956;6.962;2022-07-23T01:36:23;17.30;99.90
5899;DHT22;2975;50.956;6.962;2022-07-23T01:38:48;17.30;99.90
5899;DHT22;2975;50.956;6.962;2022-07-23T01:41:14;17.20;99.90
5899;DHT22;2975;50.956;6.962;2022-07-23T01:43:40;17.20;99.90
5899;DHT22;2975;50.956;6.962;2022-07-23T01:46:05;17.20;99.90
5899;DHT22;2975;50.956;6.962;2022-07-23T01:48:31;17.10;99.90
5899;DHT22;2975;50.956;6.962;2022-07-23T01:50:57;17.10;99.90
5899;DHT22;2975;50.956;6.962;2022-07-23T01:53:22;17.10;99.90
5899;DHT22;2975;50.956;6.962;2022-07-23T01:55:49;17.10;99.90
5899;DHT22;2975;50.956;6.962;2022-07-23T01:58:15;17.10;99.90
5899;DHT22;2975;50.956;6.962;2022-07-23T02:00:40;17.00;99.90
5899;DHT22;2975;50.956;6.962;2022-07-23T02:03:06;17.00;99.90
5899;DHT22;2975;50.956;6.962;2022-07-23T02:05:32;17.00;99.90
5899;DHT22;2975;50.956;6.962;2022-07-23T02:07:59;17.00;99.90
5899;DHT22;2975;50.956;6.962;2022-07-23T02:10:25;17.00;99.90
5899;DHT22;2975;50.956;6.962;2022-07-23T02:12:50;17.00;99.90
5899;DHT22;2975;50.956;6.962;2022-07-23T02:15:16;17.00;99.90
5899;DHT22;2975;50.956;6.962;2022-07-23T02:17:42;17.00;99.90
5899;DHT22;2975;50.956;6.962;2022-07-23T02:20:09;17.00;99.90
5899;DHT22;2975;50.956;6.962;2022-07-23T02:22:35;17.00;99.90
5899;DHT22;2975;50.956;6.962;2022-07-23T02:25:02;16.90;99.90
5899;DHT22;2975;50.956;6.962;2022-07-23T02:27:27;16.90;99.90
5899;DHT22;2975;50.956;6.962;2022-07-23T02:29:53;16.90;99.90
5899;DHT22;2975;50.956;6.962;2022-07-23T02:32:19;16.80;99.90
5899;DHT22;2975;50.956;6.962;2022-07-23T02:34:46;16.80;99.90
5899;DHT22;2975;50.956;6.962;2022-07-23T02:37:12;16.80;99.90
5899;DHT22;2975;50.956;6.962;2022-07-23T02:39:38;16.80;99.90
5899;DHT22;2975;50.956;6.962;2022-07-23T02:42:04;16.80;99.90
5899;DHT22;2975;50.956;6.962;2022-07-23T02:44:29;16.80;99.90
5899;DHT22;2975;50.956;6.962;2022-07-23T02:46:55;16.90;99.90
5899;DHT22;2975;50.956;6.962;2022-07-23T02:49:21;16.90;99.90
5899;DHT22;2975;50.956;6.962;2022-07-23T02:51:46;16.90;99.90
5899;DHT22;2975;50.956;6.962;2022-07-23T02:54:12;16.90;99.90
5899;DHT22;2975;50.956;6.962;2022-07-23T02:56:38;16.80;99.90
5899;DHT22;2975;50.956;6.962;2022-07-23T02:59:03;16.70;99.90
5899;DHT22;2975;50.956;6.962;2022-07-23T03:01:29;16.70;99.90
5899;DHT22;2975;50.956;6.962;2022-07-23T03:03:55;16.60;99.90
5899;DHT22;2975;50.956;6.962;2022-07-23T03:06:21;16.60;99.90
5899;DHT22;2975;50.956;6.962;2022-07-23T03:08:47;16.50;99.90
5899;DHT22;2975;50.956;6.962;2022-07-23T03:11:12;16.40;99.90
5899;DHT22;2975;50.956;6.962;2022-07-23T03:13:39;16.30;99.90
5899;DHT22;2975;50.956;6.962;2022-07-23T03:16:05;16.20;99.90
5899;DHT22;2975;50.956;6.962;2022-07-23T03:18:31;16.10;99.90
5899;DHT22;2975;50.956;6.962;2022-07-23T03:20:57;16.10;99.90
5899;DHT22;2975;50.956;6.962;2022-07-23T03:23:23;16.00;99.90
5899;DHT22;2975;50.956;6.962;2022-07-23T03:25:48;16.00;99.90
5899;DHT22;2975;50.956;6.962;2022-07-23T03:28:18;16.00;99.90
5899;DHT22;2975;50.956;6.962;2022-07-23T03:30:45;16.00;99.90
5899;DHT22;2975;50.956;6.962;2022-07-23T03:33:19;16.00;99.90
5899;DHT22;2975;50.956;6.962;2022-07-23T03:35:45;16.00;99.90
5899;DHT22;2975;50.956;6.962;2022-07-23T03:38:11;16.10;99.90
5899;DHT22;2975;50.956;6.962;2022-07-23T03:40:37;16.10;99.90
5899;DHT22;2975;50.956;6.962;2022-07-23T03:43:03;16.00;99.90
5899;DHT22;2975;50.956;6.962;2022-07-23T03:45:29;16.00;99.90
5899;DHT22;2975;50.956;6.962;2022-07-23T03:47:54;16.00;99.90
5899;DHT22;2975;50.956;6.962;2022-07-23T03:50:20;15.90;99.90
5899;DHT22;2975;50.956;6.962;2022-07-23T03:52:46;16.00;99.90
5899;DHT22;2975;50.956;6.962;2022-07-23T03:55:12;16.00;99.90
5899;DHT22;2975;50.956;6.962;2022-07-23T03:57:38;16.00;99.90
5899;DHT22;2975;50.956;6.962;2022-07-23T04:00:04;16.00;99.90
5899;DHT22;2975;50.956;6.962;2022-07-23T04:02:31;16.00;99.90
5899;DHT22;2975;50.956;6.962;2022-07-23T04:04:57;16.00;99.90
5899;DHT22;2975;50.956;6.962;2022-07-23T04:07:22;16.00;99.90
5899;DHT22;2975;50.956;6.962;2022-07-23T04:09:48;16.00;99.90
5899;DHT22;2975;50.956;6.962;2022-07-23T04:12:14;16.00;99.90
5899;DHT22;2975;50.956;6.962;2022-07-23T04:14:40;16.10;99.90
5899;DHT22;2975;50.956;6.962;2022-07-23T04:17:06;16.10;99.90
5899;DHT22;2975;50.956;6.962;2022-07-23T04:19:32;16.10;99.90
5899;DHT22;2975;50.956;6.962;2022-07-23T04:21:57;16.20;99.90
5899;DHT22;2975;50.956;6.962;2022-07-23T04:24:23;16.20;99.90
5899;DHT22;2975;50.956;6.962;2022-07-23T04:26:49;16.30;99.90
5899;DHT22;2975;50.956;6.962;2022-07-23T04:29:15;16.30;99.90
5899;DHT22;2975;50.956;6.962;2022-07-23T04:31:40;16.40;99.90
5899;DHT22;2975;50.956;6.962;2022-07-23T04:34:06;16.40;99.90
5899;DHT22;2975;50.956;6.962;2022-07-23T04:36:31;16.50;99.90
5899;DHT22;2975;50.956;6.962;2022-07-23T04:38:57;16.50;99.90
5899;DHT22;2975;50.956;6.962;2022-07-23T04:41:23;16.60;99.90
5899;DHT22;2975;50.956;6.962;2022-07-23T04:43:49;16.70;99.90
5899;DHT22;2975;50.956;6.962;2022-07-23T04:46:14;16.80;99.90
5899;DHT22;2975;50.956;6.962;2022-07-23T04:48:40;16.80;99.90
5899;DHT22;2975;50.956;6.962;2022-07-23T04:51:07;16.80;99.90
5899;DHT22;2975;50.956;6.962;2022-07-23T04:53:33;16.90;99.90
5899;DHT22;2975;50.956;6.962;2022-07-23T04:55:58;17.10;99.90
5899;DHT22;2975;50.956;6.962;2022-07-23T04:58:24;17.20;99.90
5899;DHT22;2975;50.956;6.962;2022-07-23T05:00:49;17.90;99.90
5899;DHT22;2975;50.956;6.962;2022-07-23T05:03:17;18.60;99.90
5899;DHT22;2975;50.956;6.962;2022-07-23T05:05:43;19.50;99.90
5899;DHT22;2975;50.956;6.962;2022-07-23T05:08:08;20.20;99.90
5899;DHT22;2975;50.956;6.962;2022-07-23T05:10:34;20.80;99.90
5899;DHT22;2975;50.956;6.962;2022-07-23T05:12:59;21.40;99.90
5899;DHT22;2975;50.956;6.962;2022-07-23T05:15:25;21.90;99.90
5899;DHT22;2975;50.956;6.962;2022-07-23T05:17:51;22.40;99.90
5899;DHT22;2975;50.956;6.962;2022-07-23T05:20:17;22.90;99.90
5899;DHT22;2975;50.956;6.962;2022-07-23T05:22:42;23.30;99.90
5899;DHT22;2975;50.956;6.962;2022-07-23T05:25:08;23.30;99.90
5899;DHT22;2975;50.956;6.962;2022-07-23T05:27:34;23.50;99.90
5899;DHT22;2975;50.956;6.962;2022-07-23T05:30:00;23.90;99.90
5899;DHT22;2975;50.956;6.962;2022-07-23T05:32:25;23.70;99.90
5899;DHT22;2975;50.956;6.962;2022-07-23T05:34:51;23.00;99.90
5899;DHT22;2975;50.956;6.962;2022-07-23T05:37:17;22.50;99.90
5899;DHT22;2975;50.956;6.962;2022-07-23T05:39:43;22.50;99.90
5899;DHT22;2975;50.956;6.962;2022-07-23T05:42:08;22.50;99.90
5899;DHT22;2975;50.956;6.962;2022-07-23T05:44:34;22.90;99.90
5899;DHT22;2975;50.956;6.962;2022-07-23T05:47:00;23.00;99.90
5899;DHT22;2975;50.956;6.962;2022-07-23T05:49:26;22.90;99.90
5899;DHT22;2975;50.956;6.962;2022-07-23T05:51:51;23.70;99.90
5899;DHT22;2975;50.956;6.962;2022-07-23T05:54:17;24.90;99.60
5899;DHT22;2975;50.956;6.962;2022-07-23T05:56:43;24.80;98.80
5899;DHT22;2975;50.956;6.962;2022-07-23T05:59:08;25.10;99.90
5899;DHT22;2975;50.956;6.962;2022-07-23T06:01:34;26.90;96.70
5899;DHT22;2975;50.956;6.962;2022-07-23T06:04:00;28.60;94.80
5899;DHT22;2975;50.956;6.962;2022-07-23T06:06:25;30.00;90.70
5899;DHT22;2975;50.956;6.962;2022-07-23T06:08:51;30.60;88.60
5899;DHT22;2975;50.956;6.962;2022-07-23T06:11:17;30.70;86.70
5899;DHT22;2975;50.956;6.962;2022-07-23T06:13:42;30.50;85.60
5899;DHT22;2975;50.956;6.962;2022-07-23T06:16:08;30.50;83.70
5899;DHT22;2975;50.956;6.962;2022-07-23T06:18:34;30.30;80.40
5899;DHT22;2975;50.956;6.962;2022-07-23T06:20:59;29.80;82.40
5899;DHT22;2975;50.956;6.962;2022-07-23T06:23:25;29.00;83.10
5899;DHT22;2975;50.956;6.962;2022-07-23T06:25:51;28.30;86.10
5899;DHT22;2975;50.956;6.962;2022-07-23T06:28:17;27.50;90.00
5899;DHT22;2975;50.956;6.962;2022-07-23T06:30:43;28.00;90.90
5899;DHT22;2975;50.956;6.962;2022-07-23T06:33:08;28.20;89.30
5899;DHT22;2975;50.956;6.962;2022-07-23T06:35:34;28.70;90.20
5899;DHT22;2975;50.956;6.962;2022-07-23T06:38:00;30.30;85.60
5899;DHT22;2975;50.956;6.962;2022-07-23T06:40:26;30.40;80.90
5899;DHT22;2975;50.956;6.962;2022-07-23T06:42:51;29.80;80.20
5899;DHT22;2975;50.956;6.962;2022-07-23T06:45:17;27.30;86.60
5899;DHT22;2975;50.956;6.962;2022-07-23T06:47:43;25.70;91.80
5899;DHT22;2975;50.956;6.962;2022-07-23T06:50:09;25.00;93.10
5899;DHT22;2975;50.956;6.962;2022-07-23T06:52:35;24.20;95.40
5899;DHT22;2975;50.956;6.962;2022-07-23T06:55:00;23.50;96.80
5899;DHT22;2975;50.956;6.962;2022-07-23T06:57:26;23.00;98.10
5899;DHT22;2975;50.956;6.962;2022-07-23T06:59:52;22.50;99.70
5899;DHT22;2975;50.956;6.962;2022-07-23T07:02:18;22.20;99.90
5899;DHT22;2975;50.956;6.962;2022-07-23T07:04:44;21.90;99.90
5899;DHT22;2975;50.956;6.962;2022-07-23T07:07:09;21.70;99.90
5899;DHT22;2975;50.956;6.962;2022-07-23T07:09:35;21.20;99.90
5899;DHT22;2975;50.956;6.962;2022-07-23T07:12:00;20.90;99.90
5899;DHT22;2975;50.956;6.962;2022-07-23T07:14:27;21.20;99.90
5899;DHT22;2975;50.956;6.962;2022-07-23T07:16:52;21.40;99.90
5899;DHT22;2975;50.956;6.962;2022-07-23T07:19:18;21.40;99.90
5899;DHT22;2975;50.956;6.962;2022-07-23T07:21:44;21.10;99.90
5899;DHT22;2975;50.956;6.962;2022-07-23T07:24:09;21.20;99.90
5899;DHT22;2975;50.956;6.962;2022-07-23T07:26:35;21.30;99.90
5899;DHT22;2975;50.956;6.962;2022-07-23T07:29:02;21.50;99.90
5899;DHT22;2975;50.956;6.962;2022-07-23T07:31:27;21.40;99.90
5899;DHT22;2975;50.956;6.962;2022-07-23T07:33:53;21.40;99.90
5899;DHT22;2975;50.956;6.962;2022-07-23T07:36:22;21.40;99.90
5899;DHT22;2975;50.956;6.962;2022-07-23T07:38:47;21.40;99.90
5899;DHT22;2975;50.956;6.962;2022-07-23T07:41:13;21.50;99.90
5899;DHT22;2975;50.956;6.962;2022-07-23T07:43:39;21.60;99.90
5899;DHT22;2975;50.956;6.962;2022-07-23T07:46:05;21.70;99.90
5899;DHT22;2975;50.956;6.962;2022-07-23T07:48:32;21.50;99.90
5899;DHT22;2975;50.956;6.962;2022-07-23T07:50:57;21.50;99.90
5899;DHT22;2975;50.956;6.962;2022-07-23T07:53:23;21.50;99.90
5899;DHT22;2975;50.956;6.962;2022-07-23T07:55:48;21.90;99.90
5899;DHT22;2975;50.956;6.962;2022-07-23T07:58:14;22.30;99.90
5899;DHT22;2975;50.956;6.962;2022-07-23T08:00:40;22.10;99.90
5899;DHT22;2975;50.956;6.962;2022-07-23T08:03:05;22.00;99.90
5899;DHT22;2975;50.956;6.962;2022-07-23T08:05:31;21.80;99.90
5899;DHT22;2975;50.956;6.962;2022-07-23T08:07:58;21.90;99.90
5899;DHT22;2975;50.956;6.962;2022-07-23T08:10:24;21.90;99.90
5899;DHT22;2975;50.956;6.962;2022-07-23T08:12:54;21.90;99.90
5899;DHT22;2975;50.956;6.962;2022-07-23T08:15:21;22.00;99.90
5899;DHT22;2975;50.956;6.962;2022-07-23T08:17:48;21.80;99.90
5899;DHT22;2975;50.956;6.962;2022-07-23T08:20:16;21.70;99.90
5899;DHT22;2975;50.956;6.962;2022-07-23T08:22:53;21.80;99.90
5899;DHT22;2975;50.956;6.962;2022-07-23T08:25:28;22.30;99.90
5899;DHT22;2975;50.956;6.962;2022-07-23T08:27:54;22.20;99.90
5899;DHT22;2975;50.956;6.962;2022-07-23T08:30:21;22.10;99.90
5899;DHT22;2975;50.956;6.962;2022-07-23T08:32:52;22.30;99.90
5899;DHT22;2975;50.956;6.962;2022-07-23T08:35:51;22.50;99.90
5899;DHT22;2975;50.956;6.962;2022-07-23T08:38:16;22.90;99.90
5899;DHT22;2975;50.956;6.962;2022-07-23T08:40:44;23.00;99.80
5899;DHT22;2975;50.956;6.962;2022-07-23T08:43:13;22.70;99.90
5899;DHT22;2975;50.956;6.962;2022-07-23T08:45:44;22.50;98.80
5899;DHT22;2975;50.956;6.962;2022-07-23T08:48:18;22.50;99.30
5899;DHT22;2975;50.956;6.962;2022-07-23T08:50:46;22.70;98.60
5899;DHT22;2975;50.956;6.962;2022-07-23T08:53:12;22.80;97.80
5899;DHT22;2975;50.956;6.962;2022-07-23T08:55:39;22.30;98.00
5899;DHT22;2975;50.956;6.962;2022-07-23T08:58:05;22.20;98.90
5899;DHT22;2975;50.956;6.962;2022-07-23T09:00:31;22.30;99.30
5899;DHT22;2975;50.956;6.962;2022-07-23T09:02:57;22.30;99.00
5899;DHT22;2975;50.956;6.962;2022-07-23T09:05:22;22.60;99.20
5899;DHT22;2975;50.956;6.962;2022-07-23T09:10:49;23.50;98.50
5899;DHT22;2975;50.956;6.962;2022-07-23T09:13:35;23.80;97.20
5899;DHT22;2975;50.956;6.962;2022-07-23T09:18:39;23.60;96.50
5899;DHT22;2975;50.956;6.962;2022-07-23T09:29:19;23.00;96.70
5899;DHT22;2975;50.956;6.962;2022-07-23T09:34:24;23.20;96.50
5899;DHT22;2975;50.956;6.962;2022-07-23T09:36:58;23.50;95.80
5899;DHT22;2975;50.956;6.962;2022-07-23T09:39:33;23.40;96.00
5899;DHT22;2975;50.956;6.962;2022-07-23T09:42:19;23.10;97.10
5899;DHT22;2975;50.956;6.962;2022-07-23T09:44:50;22.70;98.30
5899;DHT22;2975;50.956;6.962;2022-07-23T09:47:16;22.80;98.00
5899;DHT22;2975;50.956;6.962;2022-07-23T09:50:07;22.90;96.70
5899;DHT22;2975;50.956;6.962;2022-07-23T09:52:46;23.10;95.50
5899;DHT22;2975;50.956;6.962;2022-07-23T09:55:13;23.10;95.00
5899;DHT22;2975;50.956;6.962;2022-07-23T09:57:41;23.10;95.10
5899;DHT22;2975;50.956;6.962;2022-07-23T10:00:08;23.20;95.50
5899;DHT22;2975;50.956;6.962;2022-07-23T10:02:36;23.40;96.10
5899;DHT22;2975;50.956;6.962;2022-07-23T10:05:03;23.70;95.80
5899;DHT22;2975;50.956;6.962;2022-07-23T10:07:33;23.80;95.00
5899;DHT22;2975;50.956;6.962;2022-07-23T10:10:00;23.80;94.60
5899;DHT22;2975;50.956;6.962;2022-07-23T10:12:27;23.70;94.60
5899;DHT22;2975;50.956;6.962;2022-07-23T10:15:08;23.40;94.10
5899;DHT22;2975;50.956;6.962;2022-07-23T10:17:35;23.30;94.30
5899;DHT22;2975;50.956;6.962;2022-07-23T10:20:00;23.40;94.70
5899;DHT22;2975;50.956;6.962;2022-07-23T10:22:31;23.20;94.40
5899;DHT22;2975;50.956;6.962;2022-07-23T10:24:59;23.30;93.70
5899;DHT22;2975;50.956;6.962;2022-07-23T10:30:22;23.30;94.50
5899;DHT22;2975;50.956;6.962;2022-07-23T10:35:42;23.80;93.90
5899;DHT22;2975;50.956;6.962;2022-07-23T10:38:30;23.50;93.90
5899;DHT22;2975;50.956;6.962;2022-07-23T10:41:01;23.70;93.60
5899;DHT22;2975;50.956;6.962;2022-07-23T10:43:27;23.50;93.80
5899;DHT22;2975;50.956;6.962;2022-07-23T10:45:54;23.60;93.90
5899;DHT22;2975;50.956;6.962;2022-07-23T10:48:22;24.00;93.20
5899;DHT22;2975;50.956;6.962;2022-07-23T10:56:48;23.40;90.60
5899;DHT22;2975;50.956;6.962;2022-07-23T10:59:04;23.30;91.00
5899;DHT22;2975;50.956;6.962;2022-07-23T11:01:37;23.00;91.20
5899;DHT22;2975;50.956;6.962;2022-07-23T11:04:04;23.20;92.00
5899;DHT22;2975;50.956;6.962;2022-07-23T11:09:30;23.20;91.50
5899;DHT22;2975;50.956;6.962;2022-07-23T11:17:37;23.70;92.10
5899;DHT22;2975;50.956;6.962;2022-07-23T11:22:58;23.80;90.80
5899;DHT22;2975;50.956;6.962;2022-07-23T11:27:55;24.00;89.10
5899;DHT22;2975;50.956;6.962;2022-07-23T11:35:37;24.00;90.20
5899;DHT22;2975;50.956;6.962;2022-07-23T11:38:15;24.20;90.10
5899;DHT22;2975;50.956;6.962;2022-07-23T11:40:44;24.50;88.40
5899;DHT22;2975;50.956;6.962;2022-07-23T11:43:11;24.90;86.20
5899;DHT22;2975;50.956;6.962;2022-07-23T11:45:39;25.00;83.40
5899;DHT22;2975;50.956;6.962;2022-07-23T11:48:07;25.00;84.60
5899;DHT22;2975;50.956;6.962;2022-07-23T11:50:34;24.90;85.70
5899;DHT22;2975;50.956;6.962;2022-07-23T11:53:00;24.80;86.50
5899;DHT22;2975;50.956;6.962;2022-07-23T11:55:26;24.90;88.40
5899;DHT22;2975;50.956;6.962;2022-07-23T11:57:54;24.90;86.90
5899;DHT22;2975;50.956;6.962;2022-07-23T12:00:24;25.00;85.40
5899;DHT22;2975;50.956;6.962;2022-07-23T12:02:55;24.90;85.70
5899;DHT22;2975;50.956;6.962;2022-07-23T12:05:30;24.90;85.40
5899;DHT22;2975;50.956;6.962;2022-07-23T12:07:56;24.90;84.50
5899;DHT22;2975;50.956;6.962;2022-07-23T12:10:24;24.90;84.00
5899;DHT22;2975;50.956;6.962;2022-07-23T12:12:55;24.90;83.60
5899;DHT22;2975;50.956;6.962;2022-07-23T12:17:53;25.00;84.90
5899;DHT22;2975;50.956;6.962;2022-07-23T12:20:25;24.80;88.20
5899;DHT22;2975;50.956;6.962;2022-07-23T12:22:58;25.10;85.40
5899;DHT22;2975;50.956;6.962;2022-07-23T12:25:27;25.20;85.30
5899;DHT22;2975;50.956;6.962;2022-07-23T12:28:06;25.10;85.50
5899;DHT22;2975;50.956;6.962;2022-07-23T12:33:00;25.10;83.40
5899;DHT22;2975;50.956;6.962;2022-07-23T12:35:38;25.10;84.00
5899;DHT22;2975;50.956;6.962;2022-07-23T12:38:09;25.20;83.30
5899;DHT22;2975;50.956;6.962;2022-07-23T12:43:33;25.30;82.30
5899;DHT22;2975;50.956;6.962;2022-07-23T12:46:07;25.30;82.00
5899;DHT22;2975;50.956;6.962;2022-07-23T12:48:52;25.30;83.70
5899;DHT22;2975;50.956;6.962;2022-07-23T12:51:24;25.20;82.70
5899;DHT22;2975;50.956;6.962;2022-07-23T12:54:09;25.10;82.40
5899;DHT22;2975;50.956;6.962;2022-07-23T12:56:39;25.00;82.90
5899;DHT22;2975;50.956;6.962;2022-07-23T12:59:11;24.90;81.90
5899;DHT22;2975;50.956;6.962;2022-07-23T13:01:44;24.90;82.20
5899;DHT22;2975;50.956;6.962;2022-07-23T13:04:21;25.10;81.50
5899;DHT22;2975;50.956;6.962;2022-07-23T13:06:55;25.00;82.70
5899;DHT22;2975;50.956;6.962;2022-07-23T13:09:28;24.90;81.80
5899;DHT22;2975;50.956;6.962;2022-07-23T13:11:55;25.00;80.40
5899;DHT22;2975;50.956;6.962;2022-07-23T13:14:22;25.00;81.90
5899;DHT22;2975;50.956;6.962;2022-07-23T13:16:49;25.10;81.90
5899;DHT22;2975;50.956;6.962;2022-07-23T13:19:16;25.20;80.60
5899;DHT22;2975;50.956;6.962;2022-07-23T13:21:42;25.10;81.30
5899;DHT22;2975;50.956;6.962;2022-07-23T13:24:09;25.20;81.30
5899;DHT22;2975;50.956;6.962;2022-07-23T13:26:36;25.30;81.20
5899;DHT22;2975;50.956;6.962;2022-07-23T13:29:02;25.10;79.20
5899;DHT22;2975;50.956;6.962;2022-07-23T13:31:27;24.80;80.50
5899;DHT22;2975;50.956;6.962;2022-07-23T13:33:53;24.90;80.80
5899;DHT22;2975;50.956;6.962;2022-07-23T13:36:19;25.10;80.70
5899;DHT22;2975;50.956;6.962;2022-07-23T13:38:44;25.20;80.60
5899;DHT22;2975;50.956;6.962;2022-07-23T13:41:10;25.20;79.40
5899;DHT22;2975;50.956;6.962;2022-07-23T13:43:36;25.20;78.00
5899;DHT22;2975;50.956;6.962;2022-07-23T13:46:02;25.30;78.20
5899;DHT22;2975;50.956;6.962;2022-07-23T13:48:27;25.40;77.90
5899;DHT22;2975;50.956;6.962;2022-07-23T13:50:54;25.60;77.90
5899;DHT22;2975;50.956;6.962;2022-07-23T13:53:22;25.80;78.30
5899;DHT22;2975;50.956;6.962;2022-07-23T13:55:50;26.00;75.00
5899;DHT22;2975;50.956;6.962;2022-07-23T13:58:16;25.80;76.10
5899;DHT22;2975;50.956;6.962;2022-07-23T14:00:45;25.60;75.30
5899;DHT22;2975;50.956;6.962;2022-07-23T14:03:11;25.50;75.80
5899;DHT22;2975;50.956;6.962;2022-07-23T14:05:37;25.60;77.10
5899;DHT22;2975;50.956;6.962;2022-07-23T14:08:03;25.60;75.60
5899;DHT22;2975;50.956;6.962;2022-07-23T14:10:30;25.60;76.60
5899;DHT22;2975;50.956;6.962;2022-07-23T14:12:56;25.80;76.10
5899;DHT22;2975;50.956;6.962;2022-07-23T14:15:24;25.90;75.90
5899;DHT22;2975;50.956;6.962;2022-07-23T14:17:52;26.00;75.50
5899;DHT22;2975;50.956;6.962;2022-07-23T14:20:18;25.90;75.10
5899;DHT22;2975;50.956;6.962;2022-07-23T14:22:44;25.80;76.40
5899;DHT22;2975;50.956;6.962;2022-07-23T14:25:10;26.00;75.30
5899;DHT22;2975;50.956;6.962;2022-07-23T14:27:36;26.10;75.50
5899;DHT22;2975;50.956;6.962;2022-07-23T14:30:04;26.10;75.30
5899;DHT22;2975;50.956;6.962;2022-07-23T14:32:30;25.90;75.00
5899;DHT22;2975;50.956;6.962;2022-07-23T14:34:55;25.80;76.80
5899;DHT22;2975;50.956;6.962;2022-07-23T14:37:21;25.70;76.10
5899;DHT22;2975;50.956;6.962;2022-07-23T14:39:47;25.80;75.40
5899;DHT22;2975;50.956;6.962;2022-07-23T14:42:13;26.00;77.60
5899;DHT22;2975;50.956;6.962;2022-07-23T14:44:39;26.10;75.20
5899;DHT22;2975;50.956;6.962;2022-07-23T14:47:05;26.20;76.00
5899;DHT22;2975;50.956;6.962;2022-07-23T14:49:32;25.90;75.10
5899;DHT22;2975;50.956;6.962;2022-07-23T14:51:58;25.90;76.00
5899;DHT22;2975;50.956;6.962;2022-07-23T14:54:24;25.80;74.80
5899;DHT22;2975;50.956;6.962;2022-07-23T14:56:52;25.70;74.40
5899;DHT22;2975;50.956;6.962;2022-07-23T14:59:17;25.70;73.40
5899;DHT22;2975;50.956;6.962;2022-07-23T15:01:43;25.70;74.30
5899;DHT22;2975;50.956;6.962;2022-07-23T15:04:09;25.90;75.20
5899;DHT22;2975;50.956;6.962;2022-07-23T15:06:34;26.20;73.70
5899;DHT22;2975;50.956;6.962;2022-07-23T15:09:00;26.20;74.00
5899;DHT22;2975;50.956;6.962;2022-07-23T15:11:29;26.30;74.60
5899;DHT22;2975;50.956;6.962;2022-07-23T15:13:57;26.40;74.30
5899;DHT22;2975;50.956;6.962;2022-07-23T15:16:23;26.20;74.50
5899;DHT22;2975;50.956;6.962;2022-07-23T15:18:49;26.10;74.20
5899;DHT22;2975;50.956;6.962;2022-07-23T15:21:15;26.00;75.00
5899;DHT22;2975;50.956;6.962;2022-07-23T15:23:40;26.00;74.50
5899;DHT22;2975;50.956;6.962;2022-07-23T15:26:07;25.90;74.80
5899;DHT22;2975;50.956;6.962;2022-07-23T15:28:34;25.90;75.20
5899;DHT22;2975;50.956;6.962;2022-07-23T15:31:00;25.90;75.30
5899;DHT22;2975;50.956;6.962;2022-07-23T15:33:26;26.00;74.90
5899;DHT22;2975;50.956;6.962;2022-07-23T15:35:52;26.00;74.30
5899;DHT22;2975;50.956;6.962;2022-07-23T15:38:20;26.10;73.60
5899;DHT22;2975;50.956;6.962;2022-07-23T15:40:46;26.00;73.70
5899;DHT22;2975;50.956;6.962;2022-07-23T15:43:12;25.90;74.70
5899;DHT22;2975;50.956;6.962;2022-07-23T15:45:39;25.80;76.70
5899;DHT22;2975;50.956;6.962;2022-07-23T15:48:05;25.80;74.60
5899;DHT22;2975;50.956;6.962;2022-07-23T15:50:31;25.90;75.60
5899;DHT22;2975;50.956;6.962;2022-07-23T15:52:57;25.80;72.90
5899;DHT22;2975;50.956;6.962;2022-07-23T15:55:23;25.70;73.80
5899;DHT22;2975;50.956;6.962;2022-07-23T15:57:49;25.70;74.50
5899;DHT22;2975;50.956;6.962;2022-07-23T16:00:15;25.80;73.60
5899;DHT22;2975;50.956;6.962;2022-07-23T16:02:41;25.90;73.80
5899;DHT22;2975;50.956;6.962;2022-07-23T16:05:06;25.90;73.50
5899;DHT22;2975;50.956;6.962;2022-07-23T16:07:32;25.90;73.60
5899;DHT22;2975;50.956;6.962;2022-07-23T16:10:05;26.00;72.60
5899;DHT22;2975;50.956;6.962;2022-07-23T16:12:31;26.10;72.00
5899;DHT22;2975;50.956;6.962;2022-07-23T16:14:56;26.10;72.40
5899;DHT22;2975;50.956;6.962;2022-07-23T16:17:22;26.10;72.90
5899;DHT22;2975;50.956;6.962;2022-07-23T16:19:48;26.10;72.70
5899;DHT22;2975;50.956;6.962;2022-07-23T16:22:13;26.10;73.60
5899;DHT22;2975;50.956;6.962;2022-07-23T16:24:41;25.80;73.10
5899;DHT22;2975;50.956;6.962;2022-07-23T16:27:07;25.80;73.00
5899;DHT22;2975;50.956;6.962;2022-07-23T16:29:33;25.70;72.90
5899;DHT22;2975;50.956;6.962;2022-07-23T16:31:58;25.60;73.00
5899;DHT22;2975;50.956;6.962;2022-07-23T16:34:24;25.60;73.70
5899;DHT22;2975;50.956;6.962;2022-07-23T16:36:50;25.60;73.40
5899;DHT22;2975;50.956;6.962;2022-07-23T16:39:15;25.50;74.00
5899;DHT22;2975;50.956;6.962;2022-07-23T16:41:41;25.50;74.10
5899;DHT22;2975;50.956;6.962;2022-07-23T16:44:07;25.40;74.10
5899;DHT22;2975;50.956;6.962;2022-07-23T16:46:32;25.40;74.30
5899;DHT22;2975;50.956;6.962;2022-07-23T16:48:58;25.40;74.00
5899;DHT22;2975;50.956;6.962;2022-07-23T16:51:24;25.30;73.80
5899;DHT22;2975;50.956;6.962;2022-07-23T16:53:50;25.40;73.90
5899;DHT22;2975;50.956;6.962;2022-07-23T16:56:15;25.40;74.60